Time;durP1;ratioP1;P1;durP2;ratioP2;P2;SDS_P1;SDS_P2;PMS_P1;PMS_P2;Temp;Humidity;BMP_temperature;BMP_pressure;BME280_temperature;BME280_humidity;BME280_pressure;Samples;Min_cycle;Max_cycle;Signal;HPM_P1;HPM_P2
2022/09/11 00:00:31;;;;;;;6.40;4.03;;;14.60;76.60;;;;;;4118467;28;20093;-86
2022/09/11 00:02:32;;;;;;;6.25;4.05;;;14.60;76.60;;;;;;4113774;28;20033;-87
2022/09/11 00:04:33;;;;;;;8.43;4.38;;;14.50;76.60;;;;;;4116115;28;20030;-86
2022/09/11 00:06:34;;;;;;;6.90;3.83;;;14.50;76.70;;;;;;4098094;28;20035;-86
2022/09/11 00:08:34;;;;;;;5.85;4.05;;;14.60;76.70;;;;;;4118316;28;20450;-86
2022/09/11 00:10:39;;;;;;;6.40;3.80;;;14.50;76.70;;;;;;4114444;28;20038;-86
2022/09/11 00:12:39;;;;;;;7.72;3.80;;;14.50;76.70;;;;;;4131221;28;20034;-86
2022/09/11 00:14:40;;;;;;;6.40;4.03;;;14.50;76.70;;;;;;4119521;28;21276;-86
2022/09/11 00:16:44;;;;;;;10.35;4.10;;;14.50;76.60;;;;;;4113927;28;20022;-86
2022/09/11 00:18:45;;;;;;;6.57;3.72;;;14.40;76.50;;;;;;4118077;28;20073;-86
2022/09/11 00:20:56;;;;;;;8.00;4.22;;;14.40;76.50;;;;;;4112971;28;20038;-86
2022/09/11 00:23:00;;;;;;;9.88;4.15;;;14.40;76.70;;;;;;4130191;28;20030;-85
2022/09/11 00:25:18;;;;;;;9.32;3.80;;;14.40;76.60;;;;;;4097161;28;20090;-86
2022/09/11 00:27:18;;;;;;;10.25;4.10;;;14.40;76.60;;;;;;4098497;28;20549;-86
2022/09/11 00:29:19;;;;;;;6.97;3.78;;;14.40;76.70;;;;;;4116320;28;20046;-86
2022/09/11 00:31:23;;;;;;;6.68;3.78;;;14.40;76.70;;;;;;4114612;28;20042;-86
2022/09/11 00:33:26;;;;;;;5.47;3.50;;;14.40;76.80;;;;;;4112999;28;20038;-86
2022/09/11 00:35:28;;;;;;;7.65;3.45;;;14.30;76.70;;;;;;4114447;28;20047;-86
2022/09/11 00:37:28;;;;;;;9.98;3.83;;;14.30;76.80;;;;;;4111758;28;20039;-85
2022/09/11 00:39:29;;;;;;;5.13;3.47;;;14.30;76.90;;;;;;4115069;28;20034;-86
2022/09/11 00:41:36;;;;;;;6.97;3.65;;;14.30;77.00;;;;;;4114083;28;20037;-86
2022/09/11 00:44:15;;;;;;;5.93;3.55;;;14.30;77.10;;;;;;4118628;28;20038;-85
2022/09/11 00:46:16;;;;;;;6.57;3.50;;;14.30;77.50;;;;;;4082122;28;20050;-85
2022/09/11 00:48:21;;;;;;;5.80;2.90;;;14.30;77.90;;;;;;4117145;28;20050;-85
2022/09/11 00:50:26;;;;;;;5.25;3.08;;;14.30;77.30;;;;;;4119071;28;20041;-85
2022/09/11 00:52:31;;;;;;;5.00;3.10;;;14.20;77.40;;;;;;4120578;28;20042;-85
2022/09/11 00:54:37;;;;;;;5.72;3.00;;;14.20;77.60;;;;;;4116080;28;20030;-85
2022/09/11 00:56:40;;;;;;;6.03;2.90;;;14.30;77.80;;;;;;4125772;28;20069;-85
2022/09/11 00:58:43;;;;;;;5.43;2.70;;;14.20;77.80;;;;;;4118842;28;20030;-86
2022/09/11 01:00:44;;;;;;;6.38;3.50;;;14.30;78.00;;;;;;4119479;28;20038;-85
2022/09/11 01:02:48;;;;;;;8.45;2.67;;;14.20;78.00;;;;;;4116791;28;20037;-85
2022/09/11 01:04:49;;;;;;;;;;;14.20;78.10;;;;;;4120697;28;20463;-84
2022/09/11 01:06:53;;;;;;;5.78;2.25;;;14.20;78.80;;;;;;4118856;28;19933;-84
2022/09/11 01:08:54;;;;;;;4.85;2.70;;;14.30;78.20;;;;;;4118573;28;20037;-85
2022/09/11 01:11:17;;;;;;;4.05;2.63;;;14.30;78.30;;;;;;4118485;28;20038;-84
2022/09/11 01:13:31;;;;;;;3.10;2.30;;;14.30;78.70;;;;;;4117256;28;20131;-85
2022/09/11 01:15:39;;;;;;;2.80;2.20;;;14.30;78.50;;;;;;4122612;28;20031;-85
2022/09/11 01:18:00;;;;;;;3.05;2.08;;;14.30;78.40;;;;;;4120789;28;20061;-85
2022/09/11 01:20:23;;;;;;;2.50;2.00;;;14.30;78.50;;;;;;4118404;28;20034;-84
2022/09/11 01:22:34;;;;;;;6.28;2.50;;;14.30;78.50;;;;;;4117584;28;20041;-85
2022/09/11 01:24:55;;;;;;;3.17;2.17;;;14.30;78.20;;;;;;4102464;28;20507;-85
2022/09/11 01:27:35;;;;;;;4.00;2.35;;;14.30;78.80;;;;;;4118456;28;20661;-85
2022/09/11 01:29:46;;;;;;;5.53;2.72;;;14.20;77.80;;;;;;4102115;28;20034;-85
2022/09/11 01:31:53;;;;;;;4.22;2.53;;;14.20;77.50;;;;;;4118046;28;20077;-84
2022/09/11 01:34:01;;;;;;;6.53;2.60;;;14.20;77.40;;;;;;4118390;28;20582;-86
2022/09/11 01:36:06;;;;;;;7.20;2.50;;;14.20;77.30;;;;;;4118593;28;20045;-85
2022/09/11 01:38:16;;;;;;;5.47;2.60;;;14.10;77.20;;;;;;4120563;28;20042;-85
2022/09/11 01:40:26;;;;;;;9.15;2.42;;;14.10;77.10;;;;;;4135536;28;20045;-86
2022/09/11 01:42:31;;;;;;;2.90;2.20;;;14.10;77.00;;;;;;4116470;28;20035;-86
2022/09/11 01:44:40;;;;;;;4.35;2.65;;;14.10;76.90;;;;;;4132171;28;20031;-86
2022/09/11 01:46:45;;;;;;;3.72;2.22;;;14.00;76.80;;;;;;4117965;28;20582;-86
2022/09/11 01:48:50;;;;;;;3.65;2.40;;;14.00;76.80;;;;;;4118099;28;20482;-85
2022/09/11 01:50:53;;;;;;;4.70;2.35;;;14.00;77.50;;;;;;4116806;28;20031;-85
2022/09/11 01:52:56;;;;;;;;;;;14.00;76.70;;;;;;4114923;28;20049;-86
2022/09/11 01:55:10;;;;;;;4.32;2.67;;;14.00;76.90;;;;;;4119916;28;19921;-87
2022/09/11 01:57:17;;;;;;;3.92;2.45;;;13.90;76.50;;;;;;4115680;28;20034;-86
2022/09/11 01:59:27;;;;;;;4.45;2.38;;;13.80;76.30;;;;;;4121749;28;20038;-86
2022/09/11 02:01:32;;;;;;;5.30;2.45;;;13.80;76.40;;;;;;4116694;28;20499;-86
2022/09/11 02:04:03;;;;;;;5.35;2.60;;;13.90;76.50;;;;;;4116505;28;20026;-86
2022/09/11 02:06:10;;;;;;;4.57;2.75;;;13.80;76.40;;;;;;4116321;28;20026;-85
2022/09/11 02:08:19;;;;;;;6.90;3.08;;;13.70;76.30;;;;;;4120335;28;20049;-85
2022/09/11 02:10:33;;;;;;;5.35;3.25;;;13.70;76.40;;;;;;4117300;28;20426;-85
2022/09/11 02:12:50;;;;;;;5.22;2.38;;;13.70;76.40;;;;;;4117905;28;20041;-86
2022/09/11 02:14:52;;;;;;;4.28;2.47;;;13.60;76.50;;;;;;4117231;28;21311;-85
2022/09/11 02:17:32;;;;;;;5.22;3.15;;;13.60;76.40;;;;;;4100454;28;20045;-85
2022/09/11 02:19:32;;;;;;;3.80;2.63;;;13.60;76.60;;;;;;4116203;28;20026;-84
2022/09/11 02:21:34;;;;;;;7.32;3.00;;;13.60;76.60;;;;;;4118086;28;20571;-85
2022/09/11 02:23:35;;;;;;;5.70;3.30;;;13.50;76.60;;;;;;4116779;28;20026;-84
2022/09/11 02:25:36;;;;;;;4.95;3.20;;;13.50;76.60;;;;;;4116383;28;20030;-85
2022/09/11 02:27:36;;;;;;;4.70;3.22;;;13.50;76.70;;;;;;4113519;28;20057;-85
2022/09/11 02:29:38;;;;;;;4.07;2.90;;;13.40;76.70;;;;;;4116970;28;20034;-85
2022/09/11 02:31:40;;;;;;;6.70;3.35;;;13.40;76.90;;;;;;4115778;28;20667;-86
2022/09/11 02:33:42;;;;;;;3.90;3.13;;;13.40;76.90;;;;;;4131569;28;20041;-86
2022/09/11 02:35:49;;;;;;;5.03;3.13;;;13.40;77.00;;;;;;4116842;28;20501;-86
2022/09/11 02:38:12;;;;;;;5.25;3.20;;;13.40;77.10;;;;;;4116026;28;20499;-85
2022/09/11 02:40:19;;;;;;;5.75;3.70;;;13.40;77.20;;;;;;4119685;28;20064;-86
2022/09/11 02:43:01;;;;;;;7.45;3.95;;;13.30;77.10;;;;;;4099586;28;20403;-86
2022/09/11 02:45:46;;;;;;;3.85;3.30;;;13.30;77.10;;;;;;4096771;28;20163;-86
2022/09/11 02:47:54;;;;;;;9.05;3.65;;;13.30;77.40;;;;;;4096024;28;20046;-86
2022/09/11 02:50:20;;;;;;;4.72;3.40;;;13.20;77.10;;;;;;4082009;28;20077;-86
2022/09/11 02:52:26;;;;;;;5.75;3.15;;;13.20;77.30;;;;;;4095780;28;20034;-86
2022/09/11 02:54:53;;;;;;;6.63;3.47;;;13.20;78.00;;;;;;4097383;28;20062;-85
2022/09/11 02:57:18;;;;;;;5.80;3.90;;;13.20;77.60;;;;;;4103114;28;20712;-86
2022/09/11 02:59:27;;;;;;;5.75;3.80;;;13.20;77.60;;;;;;4087257;28;20035;-87
2022/09/11 03:01:28;;;;;;;5.93;3.80;;;13.20;77.70;;;;;;4097491;28;20249;-86
2022/09/11 03:03:37;;;;;;;4.80;3.60;;;13.20;77.90;;;;;;4099053;28;20062;-86
2022/09/11 03:05:39;;;;;;;5.80;3.53;;;13.10;78.10;;;;;;4083064;28;20066;-86
2022/09/11 03:07:39;;;;;;;5.13;3.35;;;13.10;78.20;;;;;;4096966;28;20062;-86
2022/09/11 03:09:40;;;;;;;7.63;3.80;;;13.20;78.40;;;;;;4101734;28;20047;-87
2022/09/11 03:11:42;;;;;;;7.88;3.88;;;13.10;78.50;;;;;;4100055;28;20042;-86
2022/09/11 03:13:43;;;;;;;4.22;3.28;;;13.20;78.60;;;;;;4099729;28;20037;-86
2022/09/11 03:15:44;;;;;;;4.90;3.38;;;13.10;78.60;;;;;;4099379;28;20070;-86
2022/09/11 03:17:45;;;;;;;5.18;3.92;;;13.10;78.70;;;;;;4097706;28;20043;-86
2022/09/11 03:19:45;;;;;;;5.75;3.70;;;13.10;78.90;;;;;;4096164;28;20427;-86
2022/09/11 03:21:46;;;;;;;5.65;3.60;;;13.10;79.00;;;;;;4107954;28;20038;-86
2022/09/11 03:23:46;;;;;;;4.63;3.72;;;13.10;79.10;;;;;;4099953;28;20180;-86
2022/09/11 03:25:47;;;;;;;6.97;3.95;;;13.20;79.20;;;;;;4119042;28;20033;-86
2022/09/11 03:27:48;;;;;;;5.30;3.40;;;13.10;79.20;;;;;;4116640;28;20519;-87
2022/09/11 03:29:49;;;;;;;4.50;3.50;;;13.10;79.30;;;;;;4133159;28;20026;-88
2022/09/11 03:31:50;;;;;;;5.25;3.97;;;13.10;79.40;;;;;;4118505;28;20034;-87
2022/09/11 03:33:51;;;;;;;5.82;3.83;;;13.10;79.40;;;;;;4116623;28;20030;-87
2022/09/11 03:35:51;;;;;;;6.80;4.35;;;13.20;79.60;;;;;;4116158;28;20072;-87
2022/09/11 03:37:54;;;;;;;5.40;3.63;;;13.10;79.70;;;;;;4115376;28;20031;-86
2022/09/11 03:39:54;;;;;;;8.07;3.72;;;13.20;79.90;;;;;;4117117;28;20023;-87
2022/09/11 03:41:55;;;;;;;5.45;3.63;;;13.20;80.20;;;;;;4100260;28;20042;-87
2022/09/11 03:43:56;;;;;;;6.80;3.90;;;13.20;80.50;;;;;;4119009;28;20530;-88
2022/09/11 03:45:56;;;;;;;7.85;3.83;;;13.20;81.60;;;;;;4118849;28;20042;-87
2022/09/11 03:47:57;;;;;;;4.53;3.33;;;13.20;81.00;;;;;;4132374;28;20709;-86
2022/09/11 03:49:58;;;;;;;6.63;3.92;;;13.30;81.20;;;;;;4132234;28;20135;-87
2022/09/11 03:52:00;;;;;;;5.18;3.72;;;13.30;81.30;;;;;;4117665;28;20146;-87
2022/09/11 03:54:01;;;;;;;4.95;3.55;;;13.30;81.30;;;;;;4131304;28;20069;-87
2022/09/11 03:56:03;;;;;;;6.38;3.85;;;13.30;81.10;;;;;;4115845;28;20940;-87
2022/09/11 03:58:06;;;;;;;4.93;3.70;;;13.30;80.90;;;;;;4117140;28;20027;-87
2022/09/11 04:00:09;;;;;;;4.25;3.47;;;13.30;80.60;;;;;;4119672;28;20030;-87
2022/09/11 04:02:10;;;;;;;8.52;3.72;;;13.30;80.60;;;;;;4116210;28;20750;-87
2022/09/11 04:04:11;;;;;;;6.03;4.20;;;13.30;80.40;;;;;;4116030;28;20061;-87
2022/09/11 04:06:12;;;;;;;5.55;3.72;;;13.30;80.20;;;;;;4117612;28;20039;-87
2022/09/11 04:08:13;;;;;;;5.82;3.80;;;13.40;80.10;;;;;;4115323;28;20053;-87
2022/09/11 04:10:14;;;;;;;13.50;3.70;;;13.30;80.00;;;;;;4133347;28;20120;-87
2022/09/11 04:12:18;;;;;;;6.63;4.20;;;13.30;79.90;;;;;;4100128;28;20350;-87
2022/09/11 04:14:21;;;;;;;7.40;4.38;;;13.30;79.80;;;;;;4115429;28;20065;-88
2022/09/11 04:16:21;;;;;;;10.05;4.00;;;13.30;79.70;;;;;;4117458;28;20395;-86
2022/09/11 04:18:22;;;;;;;8.38;3.78;;;13.30;79.70;;;;;;4118760;28;20034;-88
2022/09/11 04:20:23;;;;;;;4.35;3.58;;;13.20;79.70;;;;;;4120271;28;20117;-87
2022/09/11 04:22:25;;;;;;;5.43;3.63;;;13.20;79.60;;;;;;4120539;28;20046;-88
2022/09/11 04:24:25;;;;;;;5.30;3.85;;;13.20;80.30;;;;;;4120629;28;20030;-88
2022/09/11 04:26:28;;;;;;;5.60;3.72;;;13.20;79.60;;;;;;4120132;28;20031;-87
2022/09/11 04:28:30;;;;;;;6.00;3.75;;;13.20;79.70;;;;;;4119896;28;20041;-86
2022/09/11 04:30:37;;;;;;;6.40;3.80;;;13.10;79.80;;;;;;4134289;28;20506;-87
2022/09/11 04:32:37;;;;;;;8.45;3.50;;;13.10;79.90;;;;;;4132754;28;20037;-86
2022/09/11 04:34:38;;;;;;;9.70;4.10;;;13.10;79.90;;;;;;4121159;28;20039;-85
2022/09/11 04:36:39;;;;;;;5.43;3.67;;;13.10;79.90;;;;;;4133469;28;20411;-85
2022/09/11 04:38:40;;;;;;;7.65;3.72;;;13.10;80.00;;;;;;4119795;28;20062;-86
2022/09/11 04:40:41;;;;;;;6.28;3.80;;;13.10;80.10;;;;;;4123957;28;20182;-86
2022/09/11 04:42:41;;;;;;;4.95;3.47;;;13.10;80.20;;;;;;4119584;28;20074;-86
2022/09/11 04:44:42;;;;;;;4.38;3.58;;;13.10;80.40;;;;;;4120689;28;20030;-85
2022/09/11 04:46:44;;;;;;;5.60;3.75;;;13.10;80.70;;;;;;4122807;28;20421;-84
2022/09/11 04:48:50;;;;;;;5.68;3.80;;;13.10;81.00;;;;;;4114578;28;20115;-84
2022/09/11 04:50:59;;;;;;;3.53;2.90;;;13.10;81.30;;;;;;4120257;28;20113;-84
2022/09/11 04:52:59;;;;;;;3.92;3.05;;;13.20;81.50;;;;;;4114036;28;20039;-84
2022/09/11 04:55:00;;;;;;;10.00;2.95;;;13.20;81.70;;;;;;4132063;28;20038;-84
2022/09/11 04:57:02;;;;;;;9.10;3.42;;;13.20;81.90;;;;;;4100765;28;20070;-85
2022/09/11 04:59:14;;;;;;;7.22;3.33;;;13.20;82.00;;;;;;4117368;28;20215;-86
2022/09/11 05:01:15;;;;;;;5.75;4.05;;;13.20;82.00;;;;;;4113749;28;20041;-85
2022/09/11 05:03:16;;;;;;;6.18;4.07;;;13.30;81.80;;;;;;4133544;28;20077;-86
2022/09/11 05:05:17;;;;;;;5.32;3.55;;;13.30;81.70;;;;;;4131129;28;20143;-84
2022/09/11 05:07:18;;;;;;;4.28;3.00;;;13.30;81.60;;;;;;4131240;28;20042;-85
2022/09/11 05:09:18;;;;;;;4.60;3.40;;;13.40;81.50;;;;;;4118131;28;20650;-85
2022/09/11 05:11:19;;;;;;;5.65;3.55;;;13.30;81.40;;;;;;4118235;28;21053;-85
2022/09/11 05:13:20;;;;;;;9.65;3.85;;;13.30;81.30;;;;;;4117173;28;20088;-84
2022/09/11 05:15:21;;;;;;;5.30;3.92;;;13.30;81.20;;;;;;4115960;28;20034;-84
2022/09/11 05:17:21;;;;;;;5.20;3.60;;;13.30;81.10;;;;;;4129890;28;20906;-85
2022/09/11 05:19:23;;;;;;;4.20;3.15;;;13.30;81.10;;;;;;4117190;28;20045;-85
2022/09/11 05:21:25;;;;;;;7.50;3.70;;;13.30;81.00;;;;;;4113341;28;20041;-85
2022/09/11 05:23:27;;;;;;;6.47;3.80;;;13.30;80.90;;;;;;4119423;28;20038;-85
2022/09/11 05:25:31;;;;;;;5.05;3.25;;;13.40;81.00;;;;;;4102244;28;20047;-85
2022/09/11 05:27:31;;;;;;;5.15;3.38;;;13.30;80.90;;;;;;4113804;28;20034;-85
2022/09/11 05:29:32;;;;;;;6.30;3.40;;;13.30;80.80;;;;;;4117326;28;20108;-85
2022/09/11 05:31:33;;;;;;;5.50;3.83;;;13.30;80.80;;;;;;4116661;28;20641;-85
2022/09/11 05:33:33;;;;;;;10.07;3.22;;;13.30;80.70;;;;;;4119136;28;20061;-86
2022/09/11 05:35:34;;;;;;;6.28;3.15;;;13.30;80.70;;;;;;4116580;28;22307;-85
2022/09/11 05:37:35;;;;;;;11.05;4.00;;;13.30;80.70;;;;;;4132029;28;20100;-85
2022/09/11 05:39:36;;;;;;;4.18;3.17;;;13.30;80.70;;;;;;4116296;28;20046;-85
2022/09/11 05:41:36;;;;;;;5.10;3.38;;;13.30;80.70;;;;;;4119830;28;20049;-85
2022/09/11 05:43:39;;;;;;;5.68;3.20;;;13.30;80.70;;;;;;4120550;28;20096;-85
2022/09/11 05:45:40;;;;;;;4.15;3.00;;;13.30;80.80;;;;;;4118835;28;20035;-85
2022/09/11 05:47:41;;;;;;;5.88;3.30;;;13.30;80.90;;;;;;4117935;28;20076;-85
2022/09/11 05:49:42;;;;;;;5.47;3.38;;;13.30;81.00;;;;;;4112571;28;20598;-85
2022/09/11 05:51:42;;;;;;;4.78;3.42;;;13.30;81.20;;;;;;4117123;28;20034;-86
2022/09/11 05:53:44;;;;;;;4.60;3.33;;;13.30;81.20;;;;;;4118657;28;20034;-86
2022/09/11 05:55:46;;;;;;;3.45;2.75;;;13.40;81.50;;;;;;4119074;28;20030;-85
2022/09/11 05:57:46;;;;;;;7.32;3.35;;;13.40;81.60;;;;;;4112226;28;20030;-85
2022/09/11 05:59:47;;;;;;;6.80;3.13;;;13.40;81.70;;;;;;4115234;28;20592;-85
2022/09/11 06:01:48;;;;;;;4.45;3.10;;;13.40;81.70;;;;;;4116957;28;20608;-85
2022/09/11 06:03:49;;;;;;;5.05;2.88;;;13.50;81.90;;;;;;4112716;28;20119;-85
2022/09/11 06:05:50;;;;;;;5.55;2.95;;;13.40;81.90;;;;;;4118989;28;20030;-86
2022/09/11 06:07:51;;;;;;;5.35;3.28;;;13.50;82.10;;;;;;4117069;28;20123;-85
2022/09/11 06:09:51;;;;;;;4.53;3.00;;;13.50;82.20;;;;;;4115776;28;20415;-85
2022/09/11 06:11:52;;;;;;;4.05;2.78;;;13.50;82.30;;;;;;4134086;28;20068;-85
2022/09/11 06:13:53;;;;;;;3.60;2.45;;;13.60;82.40;;;;;;4114676;28;20038;-87
2022/09/11 06:15:54;;;;;;;4.30;2.90;;;13.60;82.50;;;;;;4116962;28;20040;-86
2022/09/11 06:17:55;;;;;;;3.97;2.63;;;13.60;82.40;;;;;;4114990;28;20161;-86
2022/09/11 06:19:55;;;;;;;6.97;3.13;;;13.70;82.50;;;;;;4112737;28;20668;-86
2022/09/11 06:21:56;;;;;;;4.72;3.05;;;13.70;82.50;;;;;;4133230;28;20535;-86
2022/09/11 06:23:57;;;;;;;4.35;3.10;;;13.60;82.50;;;;;;4122270;28;20121;-86
2022/09/11 06:26:09;;;;;;;6.80;2.80;;;13.80;82.60;;;;;;4109869;28;20293;-86
2022/09/11 06:28:10;;;;;;;6.05;2.83;;;13.80;82.60;;;;;;4118899;28;20411;-87
2022/09/11 06:30:11;;;;;;;9.13;2.67;;;13.80;82.50;;;;;;4117420;28;20089;-86
2022/09/11 06:32:12;;;;;;;4.72;3.05;;;13.80;82.30;;;;;;4114640;28;20034;-85
2022/09/11 06:34:13;;;;;;;6.07;2.92;;;13.90;82.30;;;;;;4116611;28;20219;-87
2022/09/11 06:36:16;;;;;;;3.55;2.80;;;14.00;82.30;;;;;;4117858;28;20646;-89
2022/09/11 06:38:16;;;;;;;6.85;2.65;;;13.90;82.10;;;;;;4118037;28;20104;-87
2022/09/11 06:40:17;;;;;;;4.53;3.13;;;13.90;82.10;;;;;;4118446;28;20469;-87
2022/09/11 06:42:18;;;;;;;5.05;2.78;;;14.00;82.00;;;;;;4119313;28;20101;-87
2022/09/11 06:44:19;;;;;;;5.72;2.45;;;14.00;82.10;;;;;;4118427;28;20056;-86
2022/09/11 06:46:22;;;;;;;7.05;2.75;;;14.00;82.10;;;;;;4118722;28;20027;-86
2022/09/11 06:48:22;;;;;;;6.55;2.92;;;14.00;82.10;;;;;;4118336;28;20034;-86
2022/09/11 06:50:24;;;;;;;4.68;3.17;;;14.00;82.10;;;;;;4118105;28;20038;-86
2022/09/11 06:52:24;;;;;;;5.05;2.53;;;14.10;82.30;;;;;;4120841;28;20041;-87
2022/09/11 06:54:25;;;;;;;4.55;2.72;;;14.10;82.30;;;;;;4121196;28;20026;-86
2022/09/11 06:56:26;;;;;;;3.72;2.40;;;14.10;82.30;;;;;;4118115;28;20576;-86
2022/09/11 06:58:30;;;;;;;6.05;2.50;;;14.20;82.40;;;;;;4119933;28;20042;-86
2022/09/11 07:00:33;;;;;;;8.63;2.88;;;14.20;82.40;;;;;;4115618;28;20022;-87
2022/09/11 07:02:33;;;;;;;6.18;2.63;;;14.20;82.40;;;;;;4118381;28;20030;-86
2022/09/11 07:04:34;;;;;;;4.28;2.50;;;14.30;82.60;;;;;;4118030;28;20032;-87
2022/09/11 07:06:37;;;;;;;5.35;2.63;;;14.40;82.60;;;;;;4113763;28;20022;-86
2022/09/11 07:08:38;;;;;;;4.35;2.47;;;14.40;82.60;;;;;;4119455;28;20132;-87
2022/09/11 07:10:39;;;;;;;3.00;2.28;;;14.40;82.50;;;;;;4112766;28;20042;-87
2022/09/11 07:12:40;;;;;;;5.43;3.17;;;14.50;82.50;;;;;;4113019;28;20061;-87
2022/09/11 07:14:41;;;;;;;3.75;2.60;;;14.50;82.40;;;;;;4116267;28;20030;-86
2022/09/11 07:16:42;;;;;;;5.43;2.88;;;14.60;82.40;;;;;;4110547;28;20136;-86
2022/09/11 07:18:44;;;;;;;8.38;2.60;;;14.60;82.40;;;;;;4114689;28;20046;-86
2022/09/11 07:20:45;;;;;;;3.65;2.63;;;14.60;82.40;;;;;;4127861;28;20037;-86
2022/09/11 07:22:45;;;;;;;3.65;2.65;;;14.60;82.30;;;;;;4112386;28;20030;-87
2022/09/11 07:24:46;;;;;;;5.68;2.90;;;14.70;82.30;;;;;;4115863;28;20034;-86
2022/09/11 07:26:47;;;;;;;8.88;2.63;;;14.70;82.30;;;;;;4092705;28;20069;-87
2022/09/11 07:28:49;;;;;;;4.93;2.83;;;14.80;82.30;;;;;;4131477;28;20077;-87
2022/09/11 07:30:49;;;;;;;5.03;2.65;;;14.80;82.30;;;;;;4112699;28;20541;-86
2022/09/11 07:32:50;;;;;;;6.35;2.65;;;14.90;82.40;;;;;;4113999;28;20034;-87
2022/09/11 07:34:50;;;;;;;5.72;2.85;;;14.90;82.40;;;;;;4116806;28;20082;-87
2022/09/11 07:36:51;;;;;;;4.28;2.35;;;15.00;82.40;;;;;;4110073;28;20064;-87
2022/09/11 07:38:53;;;;;;;9.32;2.50;;;15.00;82.40;;;;;;4113739;28;20061;-86
2022/09/11 07:40:55;;;;;;;3.30;2.63;;;15.10;82.40;;;;;;4115745;28;20025;-87
2022/09/11 07:42:56;;;;;;;3.10;2.42;;;15.10;82.40;;;;;;4114852;28;20030;-86
2022/09/11 07:44:56;;;;;;;3.72;2.40;;;15.20;82.50;;;;;;4113610;28;20404;-87
2022/09/11 07:46:57;;;;;;;6.53;2.67;;;15.20;82.40;;;;;;4113363;28;20030;-86
2022/09/11 07:48:58;;;;;;;5.18;2.15;;;15.30;82.40;;;;;;4113520;28;20035;-86
2022/09/11 07:51:03;;;;;;;5.32;2.45;;;15.40;82.40;;;;;;4113412;28;20034;-86
2022/09/11 07:53:05;;;;;;;3.92;2.63;;;15.40;82.30;;;;;;4109222;28;20026;-87
2022/09/11 07:55:06;;;;;;;6.43;2.30;;;15.50;82.00;;;;;;4113668;28;20093;-86
2022/09/11 07:57:06;;;;;;;6.47;2.40;;;15.50;81.60;;;;;;4126763;28;20030;-86
2022/09/11 07:59:07;;;;;;;5.78;2.35;;;15.60;81.20;;;;;;4109353;28;20027;-87
2022/09/11 08:01:12;;;;;;;5.63;2.35;;;15.60;80.70;;;;;;4128670;28;20029;-88
2022/09/11 08:03:13;;;;;;;4.13;2.53;;;15.70;80.50;;;;;;4119607;28;21162;-88
2022/09/11 08:05:14;;;;;;;3.58;2.10;;;15.70;80.10;;;;;;4117937;28;20037;-87
2022/09/11 08:07:15;;;;;;;5.28;2.08;;;15.70;79.90;;;;;;4096333;28;20051;-87
2022/09/11 08:09:17;;;;;;;3.55;2.10;;;15.80;79.80;;;;;;4113998;28;20026;-87
2022/09/11 08:11:18;;;;;;;4.97;2.20;;;15.80;79.60;;;;;;4114755;28;20037;-87
2022/09/11 08:13:19;;;;;;;3.20;2.08;;;15.90;79.40;;;;;;4112911;28;20030;-87
2022/09/11 08:15:20;;;;;;;3.50;2.10;;;15.90;79.10;;;;;;4099338;28;20038;-88
2022/09/11 08:17:21;;;;;;;8.38;2.20;;;15.90;79.00;;;;;;4115279;28;20038;-87
2022/09/11 08:19:23;;;;;;;6.72;1.77;;;16.00;79.70;;;;;;4114897;28;20034;-85
2022/09/11 08:21:25;;;;;;;3.35;1.70;;;16.00;78.90;;;;;;4103505;28;20037;-89
2022/09/11 08:23:25;;;;;;;3.13;1.60;;;16.10;79.20;;;;;;4102693;28;20038;-88
2022/09/11 08:25:27;;;;;;;3.45;1.38;;;16.10;79.10;;;;;;4112145;28;20070;-88
2022/09/11 08:27:29;;;;;;;3.47;1.55;;;16.20;79.00;;;;;;4109055;28;20053;-87
2022/09/11 08:29:30;;;;;;;6.20;1.75;;;16.20;78.70;;;;;;4113726;28;20038;-87
2022/09/11 08:31:32;;;;;;;3.28;1.55;;;16.40;78.40;;;;;;4096258;28;20582;-87
2022/09/11 08:33:33;;;;;;;3.13;1.25;;;16.40;77.80;;;;;;4114534;28;20069;-89
2022/09/11 08:35:34;;;;;;;3.78;1.30;;;16.50;77.30;;;;;;4115469;28;20042;-89
2022/09/11 08:37:35;;;;;;;5.95;1.15;;;16.50;76.00;;;;;;4111840;28;20596;-88
2022/09/11 08:39:35;;;;;;;4.32;1.20;;;16.60;76.20;;;;;;4115401;28;20093;-88
2022/09/11 08:41:42;;;;;;;6.20;1.55;;;16.60;76.10;;;;;;4114652;28;20089;-88
2022/09/11 08:43:50;;;;;;;7.03;1.65;;;16.70;75.90;;;;;;4114511;28;20339;-89
2022/09/11 08:45:57;;;;;;;5.07;1.92;;;16.80;74.70;;;;;;4115026;28;20725;-87
2022/09/11 08:48:00;;;;;;;16.30;3.00;;;16.80;74.80;;;;;;4111235;28;20031;-88
2022/09/11 08:50:10;;;;;;;3.03;1.13;;;16.90;74.80;;;;;;4113638;28;21539;-88
2022/09/11 08:52:14;;;;;;;3.13;1.40;;;16.90;74.40;;;;;;4113249;28;20432;-89
2022/09/11 08:54:26;;;;;;;3.95;1.20;;;17.00;74.30;;;;;;4097842;28;20059;-87
2022/09/11 08:56:30;;;;;;;3.35;1.20;;;17.10;73.80;;;;;;4111506;28;20058;-88
2022/09/11 08:58:56;;;;;;;2.90;1.13;;;17.10;73.50;;;;;;4108900;28;20153;-88
2022/09/11 09:01:30;;;;;;;2.15;1.00;;;17.20;72.00;;;;;;4113542;28;20783;-88
2022/09/11 09:04:22;;;;;;;2.53;1.10;;;17.30;71.60;;;;;;4113131;28;20525;-87
2022/09/11 09:06:44;;;;;;;4.32;1.00;;;17.30;69.90;;;;;;4096180;28;20760;-88
2022/09/11 09:09:00;;;;;;;1.88;1.05;;;17.40;70.40;;;;;;4117071;28;20049;-88
2022/09/11 09:11:12;;;;;;;4.53;0.90;;;17.40;69.70;;;;;;4113956;28;21268;-88
2022/09/11 09:13:31;;;;;;;3.15;1.05;;;17.50;69.00;;;;;;4097883;28;20042;-88
2022/09/11 09:15:44;;;;;;;1.17;0.98;;;17.60;68.90;;;;;;4116262;28;20031;-87
2022/09/11 09:18:02;;;;;;;2.10;1.00;;;17.60;68.50;;;;;;4118533;28;20554;-87
2022/09/11 09:20:34;;;;;;;3.03;1.25;;;17.70;67.80;;;;;;4119497;28;20499;-87
2022/09/11 09:23:02;;;;;;;1.88;0.85;;;17.70;66.80;;;;;;4084481;28;20054;-86
2022/09/11 09:25:12;;;;;;;1.63;0.90;;;17.70;65.00;;;;;;4068056;29;20123;-86
2022/09/11 09:27:48;;;;;;;2.45;0.88;;;17.80;64.00;;;;;;4082675;28;20039;-86
2022/09/11 09:29:53;;;;;;;2.80;0.98;;;17.80;62.80;;;;;;4065551;29;20063;-87
2022/09/11 09:32:03;;;;;;;1.70;0.80;;;17.80;64.80;;;;;;4067743;29;20752;-88
2022/09/11 09:34:18;;;;;;;1.98;0.75;;;17.90;62.80;;;;;;4081689;28;21073;-88
2022/09/11 09:36:22;;;;;;;1.95;0.80;;;17.90;63.00;;;;;;4079723;28;20542;-86
2022/09/11 09:38:28;;;;;;;2.22;0.90;;;18.00;63.80;;;;;;4050406;29;20116;-87
2022/09/11 09:40:32;;;;;;;1.63;0.80;;;18.00;63.00;;;;;;4090750;28;20470;-87
2022/09/11 09:43:01;;;;;;;5.22;0.70;;;18.00;62.60;;;;;;4083528;28;20042;-87
2022/09/11 09:45:23;;;;;;;2.45;0.90;;;18.10;60.90;;;;;;4083583;28;20855;-86
2022/09/11 09:47:25;;;;;;;1.30;0.73;;;18.10;61.90;;;;;;4082813;28;20223;-86
2022/09/11 09:49:32;;;;;;;1.48;0.77;;;18.20;62.30;;;;;;4085234;28;20027;-88
2022/09/11 09:51:34;;;;;;;1.55;1.02;;;18.20;62.40;;;;;;4067163;29;20553;-87
2022/09/11 09:53:43;;;;;;;2.33;0.80;;;18.20;62.90;;;;;;4070479;29;20039;-86
2022/09/11 09:55:46;;;;;;;1.10;0.70;;;18.30;61.00;;;;;;4065575;29;20199;-87
2022/09/11 09:57:47;;;;;;;2.38;0.98;;;18.30;61.60;;;;;;4073508;28;20480;-87
2022/09/11 10:00:05;;;;;;;3.75;0.60;;;18.40;60.30;;;;;;4103524;28;20096;-86
2022/09/11 10:02:06;;;;;;;3.28;0.80;;;18.40;61.10;;;;;;4113899;28;20030;-89
2022/09/11 10:04:12;;;;;;;1.30;0.90;;;18.40;60.20;;;;;;4089275;28;20026;-85
2022/09/11 10:06:13;;;;;;;4.65;1.10;;;18.40;59.60;;;;;;4100570;28;20037;-86
2022/09/11 10:08:34;;;;;;;1.63;0.90;;;18.50;60.40;;;;;;4104258;28;20070;-86
2022/09/11 10:10:37;;;;;;;1.15;0.70;;;18.50;60.00;;;;;;4108950;28;20565;-87
2022/09/11 10:12:44;;;;;;;1.63;1.13;;;18.50;60.80;;;;;;4101504;28;20031;-87
2022/09/11 10:15:16;;;;;;;2.15;0.82;;;18.50;60.00;;;;;;4100379;28;21580;-88
2022/09/11 10:17:32;;;;;;;2.30;1.52;;;18.60;59.40;;;;;;4102767;28;21606;-86
2022/09/11 10:19:41;;;;;;;2.95;1.80;;;18.60;59.50;;;;;;4105829;28;20413;-87
2022/09/11 10:21:42;;;;;;;3.78;0.77;;;18.60;59.20;;;;;;4109157;28;21031;-86
2022/09/11 10:23:49;;;;;;;0.88;0.70;;;18.60;59.40;;;;;;4109508;28;20041;-85
2022/09/11 10:25:50;;;;;;;2.30;0.70;;;18.70;59.20;;;;;;4112757;28;20046;-86
2022/09/11 10:28:10;;;;;;;1.42;0.90;;;18.70;58.60;;;;;;4116226;28;20034;-87
2022/09/11 10:30:23;;;;;;;0.98;0.80;;;18.70;58.50;;;;;;4120286;28;21225;-87
2022/09/11 10:32:24;;;;;;;1.45;1.00;;;18.70;58.40;;;;;;4120341;28;20585;-87
2022/09/11 10:34:33;;;;;;;1.35;0.70;;;18.80;58.50;;;;;;4119541;28;20053;-86
2022/09/11 10:36:34;;;;;;;2.80;0.93;;;18.70;58.60;;;;;;4119326;28;20073;-87
2022/09/11 10:38:46;;;;;;;1.20;0.60;;;18.80;58.80;;;;;;4134459;28;20580;-86
2022/09/11 10:41:02;;;;;;;2.90;0.60;;;18.80;58.70;;;;;;4119259;28;20031;-87
2022/09/11 10:43:03;;;;;;;0.80;0.60;;;18.80;58.10;;;;;;4117443;28;20026;-87
2022/09/11 10:45:10;;;;;;;2.90;0.90;;;18.80;58.40;;;;;;4118173;28;20030;-86
2022/09/11 10:47:20;;;;;;;0.90;0.77;;;18.80;58.80;;;;;;4119006;28;20030;-87
2022/09/11 10:49:22;;;;;;;1.05;0.55;;;18.90;58.30;;;;;;4121313;28;20057;-87
2022/09/11 10:51:28;;;;;;;1.23;0.70;;;18.90;58.20;;;;;;4120789;28;20117;-86
2022/09/11 10:53:36;;;;;;;2.38;1.05;;;18.90;57.70;;;;;;4121804;28;20531;-87